sensor_id;sensor_type;location;lat;lon;timestamp;temperature;humidity
57946;DHT22;46070;42.672;23.328;2022-07-05T00:00:59;22.80;59.00
57946;DHT22;46070;42.672;23.328;2022-07-05T00:03:25;22.70;59.30
57946;DHT22;46070;42.672;23.328;2022-07-05T00:05:50;22.70;59.00
57946;DHT22;46070;42.672;23.328;2022-07-05T00:08:16;22.80;59.10
57946;DHT22;46070;42.672;23.328;2022-07-05T00:10:42;22.70;58.70
57946;DHT22;46070;42.672;23.328;2022-07-05T00:13:08;22.80;58.90
57946;DHT22;46070;42.672;23.328;2022-07-05T00:15:34;22.70;58.50
57946;DHT22;46070;42.672;23.328;2022-07-05T00:18:00;22.70;58.40
57946;DHT22;46070;42.672;23.328;2022-07-05T00:20:26;22.70;58.80
57946;DHT22;46070;42.672;23.328;2022-07-05T00:22:52;22.90;58.30
57946;DHT22;46070;42.672;23.328;2022-07-05T00:25:17;22.90;58.00
57946;DHT22;46070;42.672;23.328;2022-07-05T00:27:43;22.90;58.30
57946;DHT22;46070;42.672;23.328;2022-07-05T00:30:10;23.00;58.20
57946;DHT22;46070;42.672;23.328;2022-07-05T00:32:37;22.90;57.70
57946;DHT22;46070;42.672;23.328;2022-07-05T00:35:04;22.90;57.30
57946;DHT22;46070;42.672;23.328;2022-07-05T00:37:30;23.00;57.80
57946;DHT22;46070;42.672;23.328;2022-07-05T00:39:56;23.10;57.80
57946;DHT22;46070;42.672;23.328;2022-07-05T00:42:22;23.10;57.30
57946;DHT22;46070;42.672;23.328;2022-07-05T00:44:48;23.10;58.00
57946;DHT22;46070;42.672;23.328;2022-07-05T00:47:13;23.20;57.00
57946;DHT22;46070;42.672;23.328;2022-07-05T00:49:40;23.00;58.10
57946;DHT22;46070;42.672;23.328;2022-07-05T00:52:06;23.00;57.30
57946;DHT22;46070;42.672;23.328;2022-07-05T00:54:34;22.80;58.10
57946;DHT22;46070;42.672;23.328;2022-07-05T00:57:00;22.90;58.00
57946;DHT22;46070;42.672;23.328;2022-07-05T00:59:27;22.90;57.80
57946;DHT22;46070;42.672;23.328;2022-07-05T01:01:53;22.90;57.80
57946;DHT22;46070;42.672;23.328;2022-07-05T01:04:19;23.00;58.80
57946;DHT22;46070;42.672;23.328;2022-07-05T01:06:46;22.90;58.40
57946;DHT22;46070;42.672;23.328;2022-07-05T01:09:13;23.00;58.70
57946;DHT22;46070;42.672;23.328;2022-07-05T01:11:44;22.90;58.00
57946;DHT22;46070;42.672;23.328;2022-07-05T01:14:16;22.80;57.90
57946;DHT22;46070;42.672;23.328;2022-07-05T01:16:42;22.70;58.30
57946;DHT22;46070;42.672;23.328;2022-07-05T01:19:10;22.60;58.50
57946;DHT22;46070;42.672;23.328;2022-07-05T01:21:44;22.70;58.50
57946;DHT22;46070;42.672;23.328;2022-07-05T01:24:12;22.70;58.20
57946;DHT22;46070;42.672;23.328;2022-07-05T01:26:40;22.50;59.00
57946;DHT22;46070;42.672;23.328;2022-07-05T01:29:07;22.60;59.30
57946;DHT22;46070;42.672;23.328;2022-07-05T01:31:36;22.80;59.20
57946;DHT22;46070;42.672;23.328;2022-07-05T01:34:02;22.70;58.90
57946;DHT22;46070;42.672;23.328;2022-07-05T01:36:27;22.70;59.50
57946;DHT22;46070;42.672;23.328;2022-07-05T01:38:53;22.80;60.10
57946;DHT22;46070;42.672;23.328;2022-07-05T01:41:19;22.80;60.20
57946;DHT22;46070;42.672;23.328;2022-07-05T01:43:45;22.80;59.90
57946;DHT22;46070;42.672;23.328;2022-07-05T01:46:11;22.50;59.70
57946;DHT22;46070;42.672;23.328;2022-07-05T01:48:39;22.50;60.70
57946;DHT22;46070;42.672;23.328;2022-07-05T01:51:16;22.50;61.80
57946;DHT22;46070;42.672;23.328;2022-07-05T01:53:44;22.50;62.20
57946;DHT22;46070;42.672;23.328;2022-07-05T01:56:12;22.50;62.30
57946;DHT22;46070;42.672;23.328;2022-07-05T01:58:38;22.40;62.80
57946;DHT22;46070;42.672;23.328;2022-07-05T02:01:04;22.50;63.60
57946;DHT22;46070;42.672;23.328;2022-07-05T02:03:30;22.50;64.40
57946;DHT22;46070;42.672;23.328;2022-07-05T02:05:56;22.50;64.40
57946;DHT22;46070;42.672;23.328;2022-07-05T02:08:28;22.40;64.50
57946;DHT22;46070;42.672;23.328;2022-07-05T02:10:54;22.40;64.80
57946;DHT22;46070;42.672;23.328;2022-07-05T02:13:20;22.50;64.90
57946;DHT22;46070;42.672;23.328;2022-07-05T02:15:47;22.60;64.60
57946;DHT22;46070;42.672;23.328;2022-07-05T02:18:13;22.30;64.20
57946;DHT22;46070;42.672;23.328;2022-07-05T02:20:39;22.30;64.20
57946;DHT22;46070;42.672;23.328;2022-07-05T02:23:06;22.40;64.20
57946;DHT22;46070;42.672;23.328;2022-07-05T02:25:32;22.50;65.10
57946;DHT22;46070;42.672;23.328;2022-07-05T02:27:58;22.50;65.20
57946;DHT22;46070;42.672;23.328;2022-07-05T02:30:24;22.50;63.90
57946;DHT22;46070;42.672;23.328;2022-07-05T02:32:50;22.50;62.40
57946;DHT22;46070;42.672;23.328;2022-07-05T02:35:15;22.30;61.20
57946;DHT22;46070;42.672;23.328;2022-07-05T02:37:41;22.40;61.50
57946;DHT22;46070;42.672;23.328;2022-07-05T02:40:09;22.50;62.20
57946;DHT22;46070;42.672;23.328;2022-07-05T02:42:36;22.50;64.00
57946;DHT22;46070;42.672;23.328;2022-07-05T02:45:02;22.50;63.60
57946;DHT22;46070;42.672;23.328;2022-07-05T02:47:31;22.50;62.80
57946;DHT22;46070;42.672;23.328;2022-07-05T02:49:58;22.50;62.40
57946;DHT22;46070;42.672;23.328;2022-07-05T02:52:24;22.30;63.70
57946;DHT22;46070;42.672;23.328;2022-07-05T02:54:50;22.40;64.10
57946;DHT22;46070;42.672;23.328;2022-07-05T02:57:16;22.30;64.10
57946;DHT22;46070;42.672;23.328;2022-07-05T02:59:41;22.30;65.40
57946;DHT22;46070;42.672;23.328;2022-07-05T03:02:07;22.30;65.70
57946;DHT22;46070;42.672;23.328;2022-07-05T03:04:33;22.30;65.80
57946;DHT22;46070;42.672;23.328;2022-07-05T03:06:58;22.20;65.60
57946;DHT22;46070;42.672;23.328;2022-07-05T03:09:25;22.30;65.10
57946;DHT22;46070;42.672;23.328;2022-07-05T03:11:51;22.30;66.10
57946;DHT22;46070;42.672;23.328;2022-07-05T03:14:16;22.30;66.50
57946;DHT22;46070;42.672;23.328;2022-07-05T03:16:42;22.40;66.80
57946;DHT22;46070;42.672;23.328;2022-07-05T03:19:10;22.20;67.00
57946;DHT22;46070;42.672;23.328;2022-07-05T03:21:36;22.30;66.40
57946;DHT22;46070;42.672;23.328;2022-07-05T03:24:01;22.30;67.60
57946;DHT22;46070;42.672;23.328;2022-07-05T03:26:27;22.40;67.50
57946;DHT22;46070;42.672;23.328;2022-07-05T03:28:53;22.50;67.20
57946;DHT22;46070;42.672;23.328;2022-07-05T03:31:19;22.60;67.40
57946;DHT22;46070;42.672;23.328;2022-07-05T03:33:44;22.60;68.10
57946;DHT22;46070;42.672;23.328;2022-07-05T03:36:10;22.60;68.10
57946;DHT22;46070;42.672;23.328;2022-07-05T03:38:36;22.70;68.20
57946;DHT22;46070;42.672;23.328;2022-07-05T03:41:02;22.60;69.40
57946;DHT22;46070;42.672;23.328;2022-07-05T03:43:27;22.60;69.90
57946;DHT22;46070;42.672;23.328;2022-07-05T03:45:54;22.80;69.20
57946;DHT22;46070;42.672;23.328;2022-07-05T03:48:20;23.00;69.10
57946;DHT22;46070;42.672;23.328;2022-07-05T03:50:46;23.10;68.70
57946;DHT22;46070;42.672;23.328;2022-07-05T03:53:12;23.00;68.60
57946;DHT22;46070;42.672;23.328;2022-07-05T03:55:38;23.00;69.70
57946;DHT22;46070;42.672;23.328;2022-07-05T03:58:03;23.20;68.30
57946;DHT22;46070;42.672;23.328;2022-07-05T04:00:29;23.10;67.60
57946;DHT22;46070;42.672;23.328;2022-07-05T04:02:55;23.10;67.50
57946;DHT22;46070;42.672;23.328;2022-07-05T04:05:21;23.20;67.10
57946;DHT22;46070;42.672;23.328;2022-07-05T04:07:51;23.20;67.80
57946;DHT22;46070;42.672;23.328;2022-07-05T04:10:17;23.20;66.90
57946;DHT22;46070;42.672;23.328;2022-07-05T04:12:43;23.20;67.60
57946;DHT22;46070;42.672;23.328;2022-07-05T04:15:10;23.30;67.50
57946;DHT22;46070;42.672;23.328;2022-07-05T04:17:45;23.40;67.00
57946;DHT22;46070;42.672;23.328;2022-07-05T04:20:11;23.60;66.60
57946;DHT22;46070;42.672;23.328;2022-07-05T04:22:36;23.90;66.00
57946;DHT22;46070;42.672;23.328;2022-07-05T04:25:02;23.80;65.90
57946;DHT22;46070;42.672;23.328;2022-07-05T04:27:48;23.90;65.40
57946;DHT22;46070;42.672;23.328;2022-07-05T04:30:15;24.10;64.70
57946;DHT22;46070;42.672;23.328;2022-07-05T04:32:41;24.00;63.70
57946;DHT22;46070;42.672;23.328;2022-07-05T04:35:07;23.90;64.10
57946;DHT22;46070;42.672;23.328;2022-07-05T04:37:33;23.90;63.80
57946;DHT22;46070;42.672;23.328;2022-07-05T04:39:59;23.90;64.90
57946;DHT22;46070;42.672;23.328;2022-07-05T04:42:25;24.10;64.60
57946;DHT22;46070;42.672;23.328;2022-07-05T04:44:50;24.40;63.40
57946;DHT22;46070;42.672;23.328;2022-07-05T04:47:16;24.50;63.40
57946;DHT22;46070;42.672;23.328;2022-07-05T04:49:42;24.50;62.90
57946;DHT22;46070;42.672;23.328;2022-07-05T04:52:08;24.50;62.30
57946;DHT22;46070;42.672;23.328;2022-07-05T04:54:34;24.80;62.70
57946;DHT22;46070;42.672;23.328;2022-07-05T04:57:00;25.00;61.40
57946;DHT22;46070;42.672;23.328;2022-07-05T04:59:26;24.90;61.80
57946;DHT22;46070;42.672;23.328;2022-07-05T05:01:51;25.20;61.10
57946;DHT22;46070;42.672;23.328;2022-07-05T05:04:17;25.00;60.30
57946;DHT22;46070;42.672;23.328;2022-07-05T05:06:43;25.40;61.20
57946;DHT22;46070;42.672;23.328;2022-07-05T05:09:08;25.40;60.70
57946;DHT22;46070;42.672;23.328;2022-07-05T05:11:34;25.40;60.40
57946;DHT22;46070;42.672;23.328;2022-07-05T05:14:00;25.30;60.60
57946;DHT22;46070;42.672;23.328;2022-07-05T05:16:25;25.70;60.10
57946;DHT22;46070;42.672;23.328;2022-07-05T05:18:51;25.70;60.10
57946;DHT22;46070;42.672;23.328;2022-07-05T05:21:17;25.80;59.50
57946;DHT22;46070;42.672;23.328;2022-07-05T05:23:43;25.90;60.80
57946;DHT22;46070;42.672;23.328;2022-07-05T05:26:08;26.10;60.80
57946;DHT22;46070;42.672;23.328;2022-07-05T05:28:34;26.20;59.90
57946;DHT22;46070;42.672;23.328;2022-07-05T05:31:00;26.30;59.50
57946;DHT22;46070;42.672;23.328;2022-07-05T05:33:26;26.40;60.10
57946;DHT22;46070;42.672;23.328;2022-07-05T05:35:52;26.50;59.60
57946;DHT22;46070;42.672;23.328;2022-07-05T05:38:17;26.60;59.80
57946;DHT22;46070;42.672;23.328;2022-07-05T05:40:43;26.60;59.70
57946;DHT22;46070;42.672;23.328;2022-07-05T05:43:12;27.00;58.90
57946;DHT22;46070;42.672;23.328;2022-07-05T05:45:38;27.00;58.00
57946;DHT22;46070;42.672;23.328;2022-07-05T05:48:04;27.20;58.40
57946;DHT22;46070;42.672;23.328;2022-07-05T05:50:31;27.50;58.00
57946;DHT22;46070;42.672;23.328;2022-07-05T05:52:58;27.60;57.10
57946;DHT22;46070;42.672;23.328;2022-07-05T05:55:25;27.50;56.20
57946;DHT22;46070;42.672;23.328;2022-07-05T05:57:52;27.20;57.30
57946;DHT22;46070;42.672;23.328;2022-07-05T06:00:18;27.70;55.80
57946;DHT22;46070;42.672;23.328;2022-07-05T06:02:45;27.90;55.80
57946;DHT22;46070;42.672;23.328;2022-07-05T06:05:12;27.80;55.30
57946;DHT22;46070;42.672;23.328;2022-07-05T06:07:55;27.90;55.40
57946;DHT22;46070;42.672;23.328;2022-07-05T06:10:26;28.00;54.30
57946;DHT22;46070;42.672;23.328;2022-07-05T06:12:53;28.30;55.30
57946;DHT22;46070;42.672;23.328;2022-07-05T06:15:19;28.20;55.10
57946;DHT22;46070;42.672;23.328;2022-07-05T06:17:45;28.00;55.70
57946;DHT22;46070;42.672;23.328;2022-07-05T06:20:14;27.80;56.00
57946;DHT22;46070;42.672;23.328;2022-07-05T06:22:40;28.10;55.50
57946;DHT22;46070;42.672;23.328;2022-07-05T06:25:06;28.40;55.10
57946;DHT22;46070;42.672;23.328;2022-07-05T06:27:38;28.80;55.70
57946;DHT22;46070;42.672;23.328;2022-07-05T06:30:05;28.60;54.50
57946;DHT22;46070;42.672;23.328;2022-07-05T06:32:30;29.00;56.10
57946;DHT22;46070;42.672;23.328;2022-07-05T06:34:56;29.40;54.00
57946;DHT22;46070;42.672;23.328;2022-07-05T06:37:22;29.20;52.60
57946;DHT22;46070;42.672;23.328;2022-07-05T06:39:47;29.30;54.30
57946;DHT22;46070;42.672;23.328;2022-07-05T06:42:13;29.80;53.60
57946;DHT22;46070;42.672;23.328;2022-07-05T06:44:39;30.00;54.30
57946;DHT22;46070;42.672;23.328;2022-07-05T06:47:05;30.10;53.50
57946;DHT22;46070;42.672;23.328;2022-07-05T06:49:30;30.20;52.60
57946;DHT22;46070;42.672;23.328;2022-07-05T06:51:56;30.50;52.20
57946;DHT22;46070;42.672;23.328;2022-07-05T06:54:22;30.40;52.30
57946;DHT22;46070;42.672;23.328;2022-07-05T06:56:47;30.80;52.00
57946;DHT22;46070;42.672;23.328;2022-07-05T06:59:13;30.80;52.20
57946;DHT22;46070;42.672;23.328;2022-07-05T07:01:39;31.00;53.20
57946;DHT22;46070;42.672;23.328;2022-07-05T07:04:04;30.90;51.40
57946;DHT22;46070;42.672;23.328;2022-07-05T07:06:30;30.40;51.70
57946;DHT22;46070;42.672;23.328;2022-07-05T07:08:56;30.80;51.90
57946;DHT22;46070;42.672;23.328;2022-07-05T07:11:40;31.20;53.00
57946;DHT22;46070;42.672;23.328;2022-07-05T07:14:06;31.20;51.60
57946;DHT22;46070;42.672;23.328;2022-07-05T07:16:32;31.50;52.30
57946;DHT22;46070;42.672;23.328;2022-07-05T07:18:58;31.50;50.90
57946;DHT22;46070;42.672;23.328;2022-07-05T07:21:23;31.10;52.70
57946;DHT22;46070;42.672;23.328;2022-07-05T07:23:49;31.50;51.10
57946;DHT22;46070;42.672;23.328;2022-07-05T07:26:15;31.80;51.90
57946;DHT22;46070;42.672;23.328;2022-07-05T07:28:40;32.50;51.60
57946;DHT22;46070;42.672;23.328;2022-07-05T07:31:07;32.30;50.30
57946;DHT22;46070;42.672;23.328;2022-07-05T07:33:33;32.90;50.10
57946;DHT22;46070;42.672;23.328;2022-07-05T07:35:59;34.00;47.60
57946;DHT22;46070;42.672;23.328;2022-07-05T07:38:25;37.60;44.80
57946;DHT22;46070;42.672;23.328;2022-07-05T07:40:52;40.20;41.70
57946;DHT22;46070;42.672;23.328;2022-07-05T07:43:17;40.70;38.50
57946;DHT22;46070;42.672;23.328;2022-07-05T07:45:43;40.90;40.50
57946;DHT22;46070;42.672;23.328;2022-07-05T07:48:09;41.90;38.90
57946;DHT22;46070;42.672;23.328;2022-07-05T07:50:35;43.00;38.50
57946;DHT22;46070;42.672;23.328;2022-07-05T07:53:01;42.70;37.30
57946;DHT22;46070;42.672;23.328;2022-07-05T07:55:26;42.00;39.70
57946;DHT22;46070;42.672;23.328;2022-07-05T07:57:52;42.20;38.00
57946;DHT22;46070;42.672;23.328;2022-07-05T08:00:18;40.60;37.90
57946;DHT22;46070;42.672;23.328;2022-07-05T08:02:44;38.60;39.50
57946;DHT22;46070;42.672;23.328;2022-07-05T08:05:09;37.80;42.90
57946;DHT22;46070;42.672;23.328;2022-07-05T08:07:36;36.90;41.50
57946;DHT22;46070;42.672;23.328;2022-07-05T08:10:06;36.20;42.00
57946;DHT22;46070;42.672;23.328;2022-07-05T08:12:32;36.30;43.30
57946;DHT22;46070;42.672;23.328;2022-07-05T08:14:58;37.00;43.10
57946;DHT22;46070;42.672;23.328;2022-07-05T08:17:24;37.90;42.90
57946;DHT22;46070;42.672;23.328;2022-07-05T08:19:49;39.30;39.50
57946;DHT22;46070;42.672;23.328;2022-07-05T08:22:33;40.10;38.60
57946;DHT22;46070;42.672;23.328;2022-07-05T08:24:59;41.20;38.90
57946;DHT22;46070;42.672;23.328;2022-07-05T08:27:25;41.80;38.80
57946;DHT22;46070;42.672;23.328;2022-07-05T08:29:51;41.30;38.80
57946;DHT22;46070;42.672;23.328;2022-07-05T08:32:17;39.80;40.60
57946;DHT22;46070;42.672;23.328;2022-07-05T08:34:43;37.20;40.60
57946;DHT22;46070;42.672;23.328;2022-07-05T08:37:08;34.90;43.50
57946;DHT22;46070;42.672;23.328;2022-07-05T08:39:35;34.60;43.90
57946;DHT22;46070;42.672;23.328;2022-07-05T08:42:01;34.90;43.40
57946;DHT22;46070;42.672;23.328;2022-07-05T08:44:29;36.10;43.10
57946;DHT22;46070;42.672;23.328;2022-07-05T08:46:56;37.40;41.70
57946;DHT22;46070;42.672;23.328;2022-07-05T08:49:25;35.70;41.90
57946;DHT22;46070;42.672;23.328;2022-07-05T08:51:52;34.70;44.80
57946;DHT22;46070;42.672;23.328;2022-07-05T08:54:19;33.60;45.30
57946;DHT22;46070;42.672;23.328;2022-07-05T08:56:45;33.10;46.50
57946;DHT22;46070;42.672;23.328;2022-07-05T08:59:11;32.80;46.80
57946;DHT22;46070;42.672;23.328;2022-07-05T09:01:38;32.50;47.90
57946;DHT22;46070;42.672;23.328;2022-07-05T09:04:07;32.30;49.60
57946;DHT22;46070;42.672;23.328;2022-07-05T09:06:37;32.20;49.70
57946;DHT22;46070;42.672;23.328;2022-07-05T09:09:03;31.80;49.40
57946;DHT22;46070;42.672;23.328;2022-07-05T09:11:38;31.30;48.90
57946;DHT22;46070;42.672;23.328;2022-07-05T09:14:07;31.20;50.10
57946;DHT22;46070;42.672;23.328;2022-07-05T09:16:33;31.20;50.80
57946;DHT22;46070;42.672;23.328;2022-07-05T09:19:08;31.20;49.90
57946;DHT22;46070;42.672;23.328;2022-07-05T09:21:34;31.10;50.70
57946;DHT22;46070;42.672;23.328;2022-07-05T09:24:08;31.20;52.60
57946;DHT22;46070;42.672;23.328;2022-07-05T09:29:01;31.00;52.30
57946;DHT22;46070;42.672;23.328;2022-07-05T09:31:41;30.90;51.80
57946;DHT22;46070;42.672;23.328;2022-07-05T09:34:09;30.60;51.80
57946;DHT22;46070;42.672;23.328;2022-07-05T09:36:58;30.60;52.90
57946;DHT22;46070;42.672;23.328;2022-07-05T09:42:20;30.50;52.60
57946;DHT22;46070;42.672;23.328;2022-07-05T09:44:52;30.40;52.30
57946;DHT22;46070;42.672;23.328;2022-07-05T09:47:20;30.20;52.80
57946;DHT22;46070;42.672;23.328;2022-07-05T09:49:54;30.40;52.60
57946;DHT22;46070;42.672;23.328;2022-07-05T09:52:30;30.40;51.80
57946;DHT22;46070;42.672;23.328;2022-07-05T09:55:07;29.80;52.80
57946;DHT22;46070;42.672;23.328;2022-07-05T09:57:35;30.10;53.10
57946;DHT22;46070;42.672;23.328;2022-07-05T10:00:04;30.20;54.30
57946;DHT22;46070;42.672;23.328;2022-07-05T10:02:44;30.30;53.40
57946;DHT22;46070;42.672;23.328;2022-07-05T10:05:11;30.40;53.30
57946;DHT22;46070;42.672;23.328;2022-07-05T10:07:44;30.40;54.00
57946;DHT22;46070;42.672;23.328;2022-07-05T10:10:14;30.30;53.40
57946;DHT22;46070;42.672;23.328;2022-07-05T10:12:42;30.10;53.30
57946;DHT22;46070;42.672;23.328;2022-07-05T10:15:10;30.10;54.50
57946;DHT22;46070;42.672;23.328;2022-07-05T10:17:40;29.90;54.10
57946;DHT22;46070;42.672;23.328;2022-07-05T10:20:32;29.70;54.90
57946;DHT22;46070;42.672;23.328;2022-07-05T10:22:56;29.80;55.30
57946;DHT22;46070;42.672;23.328;2022-07-05T10:25:23;29.80;54.30
57946;DHT22;46070;42.672;23.328;2022-07-05T10:27:51;29.80;54.50
57946;DHT22;46070;42.672;23.328;2022-07-05T10:30:23;29.70;53.90
57946;DHT22;46070;42.672;23.328;2022-07-05T10:32:49;29.60;54.00
57946;DHT22;46070;42.672;23.328;2022-07-05T10:35:19;29.60;54.50
57946;DHT22;46070;42.672;23.328;2022-07-05T10:37:45;29.90;56.10
57946;DHT22;46070;42.672;23.328;2022-07-05T10:40:12;29.90;55.90
57946;DHT22;46070;42.672;23.328;2022-07-05T10:42:41;30.00;55.90
57946;DHT22;46070;42.672;23.328;2022-07-05T10:45:36;29.90;54.80
57946;DHT22;46070;42.672;23.328;2022-07-05T10:48:24;29.90;54.00
57946;DHT22;46070;42.672;23.328;2022-07-05T10:50:55;29.70;54.80
57946;DHT22;46070;42.672;23.328;2022-07-05T10:55:51;29.60;55.00
57946;DHT22;46070;42.672;23.328;2022-07-05T11:00:47;29.80;54.00
57946;DHT22;46070;42.672;23.328;2022-07-05T11:03:37;29.90;54.60
57946;DHT22;46070;42.672;23.328;2022-07-05T11:06:04;29.80;54.10
57946;DHT22;46070;42.672;23.328;2022-07-05T11:11:38;29.90;54.40
57946;DHT22;46070;42.672;23.328;2022-07-05T11:16:46;29.90;54.70
57946;DHT22;46070;42.672;23.328;2022-07-05T11:19:17;30.10;54.60
57946;DHT22;46070;42.672;23.328;2022-07-05T11:22:04;30.10;55.10
57946;DHT22;46070;42.672;23.328;2022-07-05T11:24:34;29.80;54.50
57946;DHT22;46070;42.672;23.328;2022-07-05T11:27:01;29.90;55.50
57946;DHT22;46070;42.672;23.328;2022-07-05T11:29:40;29.80;54.90
57946;DHT22;46070;42.672;23.328;2022-07-05T11:32:11;29.80;55.90
57946;DHT22;46070;42.672;23.328;2022-07-05T11:34:39;29.80;56.10
57946;DHT22;46070;42.672;23.328;2022-07-05T11:39:44;30.00;54.70
57946;DHT22;46070;42.672;23.328;2022-07-05T11:42:10;30.10;54.20
57946;DHT22;46070;42.672;23.328;2022-07-05T11:44:37;30.00;55.30
57946;DHT22;46070;42.672;23.328;2022-07-05T11:47:06;30.00;54.20
57946;DHT22;46070;42.672;23.328;2022-07-05T11:49:32;30.00;55.30
57946;DHT22;46070;42.672;23.328;2022-07-05T11:51:59;30.10;54.80
57946;DHT22;46070;42.672;23.328;2022-07-05T11:54:30;30.10;55.60
57946;DHT22;46070;42.672;23.328;2022-07-05T11:56:56;30.10;54.50
57946;DHT22;46070;42.672;23.328;2022-07-05T11:59:23;30.00;55.20
57946;DHT22;46070;42.672;23.328;2022-07-05T12:01:50;30.10;55.00
57946;DHT22;46070;42.672;23.328;2022-07-05T12:04:23;30.10;55.70
57946;DHT22;46070;42.672;23.328;2022-07-05T12:06:49;30.20;53.80
57946;DHT22;46070;42.672;23.328;2022-07-05T12:09:23;30.10;53.90
57946;DHT22;46070;42.672;23.328;2022-07-05T12:11:53;30.00;54.50
57946;DHT22;46070;42.672;23.328;2022-07-05T12:14:45;30.10;53.90
57946;DHT22;46070;42.672;23.328;2022-07-05T12:17:19;30.10;54.50
57946;DHT22;46070;42.672;23.328;2022-07-05T12:19:45;30.10;54.80
57946;DHT22;46070;42.672;23.328;2022-07-05T12:22:11;30.00;53.40
57946;DHT22;46070;42.672;23.328;2022-07-05T12:24:37;29.90;54.00
57946;DHT22;46070;42.672;23.328;2022-07-05T12:27:04;29.90;53.40
57946;DHT22;46070;42.672;23.328;2022-07-05T12:29:30;29.90;54.60
57946;DHT22;46070;42.672;23.328;2022-07-05T12:32:06;30.10;55.40
57946;DHT22;46070;42.672;23.328;2022-07-05T12:34:34;30.10;54.40
57946;DHT22;46070;42.672;23.328;2022-07-05T12:37:00;30.20;54.70
57946;DHT22;46070;42.672;23.328;2022-07-05T12:39:26;30.30;54.90
57946;DHT22;46070;42.672;23.328;2022-07-05T12:41:52;30.30;55.10
57946;DHT22;46070;42.672;23.328;2022-07-05T12:44:19;30.30;54.30
57946;DHT22;46070;42.672;23.328;2022-07-05T12:46:46;30.30;54.90
57946;DHT22;46070;42.672;23.328;2022-07-05T12:49:12;30.30;54.70
57946;DHT22;46070;42.672;23.328;2022-07-05T12:51:39;30.10;54.70
57946;DHT22;46070;42.672;23.328;2022-07-05T12:54:21;30.10;54.70
57946;DHT22;46070;42.672;23.328;2022-07-05T12:57:06;30.30;55.30
57946;DHT22;46070;42.672;23.328;2022-07-05T13:02:41;30.10;55.30
57946;DHT22;46070;42.672;23.328;2022-07-05T13:05:09;30.10;54.80
57946;DHT22;46070;42.672;23.328;2022-07-05T13:07:41;30.00;54.70
57946;DHT22;46070;42.672;23.328;2022-07-05T13:10:27;30.00;54.80
57946;DHT22;46070;42.672;23.328;2022-07-05T13:12:59;30.10;55.50
57946;DHT22;46070;42.672;23.328;2022-07-05T13:15:25;30.20;55.10
57946;DHT22;46070;42.672;23.328;2022-07-05T13:17:50;30.30;55.60
57946;DHT22;46070;42.672;23.328;2022-07-05T13:20:18;30.30;55.30
57946;DHT22;46070;42.672;23.328;2022-07-05T13:22:46;30.30;54.80
57946;DHT22;46070;42.672;23.328;2022-07-05T13:25:12;30.20;55.50
57946;DHT22;46070;42.672;23.328;2022-07-05T13:27:41;30.30;55.20
57946;DHT22;46070;42.672;23.328;2022-07-05T13:30:08;30.30;55.10
57946;DHT22;46070;42.672;23.328;2022-07-05T13:32:33;30.30;55.40
57946;DHT22;46070;42.672;23.328;2022-07-05T13:34:59;30.30;56.00
57946;DHT22;46070;42.672;23.328;2022-07-05T13:37:25;30.30;55.60
57946;DHT22;46070;42.672;23.328;2022-07-05T13:39:51;30.30;55.70
57946;DHT22;46070;42.672;23.328;2022-07-05T13:42:16;30.30;56.60
57946;DHT22;46070;42.672;23.328;2022-07-05T13:44:42;30.20;56.20
57946;DHT22;46070;42.672;23.328;2022-07-05T13:47:08;30.20;56.90
57946;DHT22;46070;42.672;23.328;2022-07-05T13:49:33;30.30;56.50
57946;DHT22;46070;42.672;23.328;2022-07-05T13:51:59;30.30;57.40
57946;DHT22;46070;42.672;23.328;2022-07-05T13:54:27;30.10;56.30
57946;DHT22;46070;42.672;23.328;2022-07-05T13:56:53;30.10;56.90
57946;DHT22;46070;42.672;23.328;2022-07-05T13:59:19;30.20;57.00
57946;DHT22;46070;42.672;23.328;2022-07-05T14:01:46;30.10;56.20
57946;DHT22;46070;42.672;23.328;2022-07-05T14:04:12;30.10;55.50
57946;DHT22;46070;42.672;23.328;2022-07-05T14:06:37;30.20;56.50
57946;DHT22;46070;42.672;23.328;2022-07-05T14:09:03;30.20;57.30
57946;DHT22;46070;42.672;23.328;2022-07-05T14:11:29;30.30;57.20
57946;DHT22;46070;42.672;23.328;2022-07-05T14:13:55;30.30;57.50
57946;DHT22;46070;42.672;23.328;2022-07-05T14:16:22;30.30;57.20
57946;DHT22;46070;42.672;23.328;2022-07-05T14:18:48;30.20;56.30
57946;DHT22;46070;42.672;23.328;2022-07-05T14:21:15;30.10;57.10
57946;DHT22;46070;42.672;23.328;2022-07-05T14:23:42;30.10;57.40
57946;DHT22;46070;42.672;23.328;2022-07-05T14:26:08;30.00;57.10
57946;DHT22;46070;42.672;23.328;2022-07-05T14:28:36;30.00;57.10
57946;DHT22;46070;42.672;23.328;2022-07-05T14:31:02;29.80;56.50
57946;DHT22;46070;42.672;23.328;2022-07-05T14:33:27;29.70;56.30
57946;DHT22;46070;42.672;23.328;2022-07-05T14:35:53;29.70;56.80
57946;DHT22;46070;42.672;23.328;2022-07-05T14:38:19;29.70;57.30
57946;DHT22;46070;42.672;23.328;2022-07-05T14:40:44;29.70;57.40
57946;DHT22;46070;42.672;23.328;2022-07-05T14:43:10;29.70;57.00
57946;DHT22;46070;42.672;23.328;2022-07-05T14:45:36;29.60;56.70
57946;DHT22;46070;42.672;23.328;2022-07-05T14:48:02;29.60;57.80
57946;DHT22;46070;42.672;23.328;2022-07-05T14:50:27;29.50;58.10
57946;DHT22;46070;42.672;23.328;2022-07-05T14:52:53;29.60;57.60
57946;DHT22;46070;42.672;23.328;2022-07-05T14:55:19;29.50;57.40
57946;DHT22;46070;42.672;23.328;2022-07-05T14:57:45;29.40;57.40
57946;DHT22;46070;42.672;23.328;2022-07-05T15:00:13;29.30;57.60
57946;DHT22;46070;42.672;23.328;2022-07-05T15:02:39;29.30;58.00
57946;DHT22;46070;42.672;23.328;2022-07-05T15:05:06;29.40;58.10
57946;DHT22;46070;42.672;23.328;2022-07-05T15:07:33;29.40;58.20
57946;DHT22;46070;42.672;23.328;2022-07-05T15:09:59;29.50;57.70
57946;DHT22;46070;42.672;23.328;2022-07-05T15:12:25;29.50;58.60
57946;DHT22;46070;42.672;23.328;2022-07-05T15:14:51;29.50;58.10
57946;DHT22;46070;42.672;23.328;2022-07-05T15:17:17;29.50;57.80
57946;DHT22;46070;42.672;23.328;2022-07-05T15:19:42;29.50;58.30
57946;DHT22;46070;42.672;23.328;2022-07-05T15:22:09;29.50;58.20
57946;DHT22;46070;42.672;23.328;2022-07-05T15:24:36;29.50;57.00
57946;DHT22;46070;42.672;23.328;2022-07-05T15:27:02;29.40;57.20
57946;DHT22;46070;42.672;23.328;2022-07-05T15:29:28;29.40;57.80
57946;DHT22;46070;42.672;23.328;2022-07-05T15:31:56;29.40;58.10
57946;DHT22;46070;42.672;23.328;2022-07-05T15:34:21;29.50;58.80
57946;DHT22;46070;42.672;23.328;2022-07-05T15:36:48;29.40;58.50
57946;DHT22;46070;42.672;23.328;2022-07-05T15:39:13;29.40;58.60